Time;durP1;ratioP1;P1;durP2;ratioP2;P2;SDS_P1;SDS_P2;PMS_P1;PMS_P2;Temp;Humidity;BMP_temperature;BMP_pressure;BME280_temperature;BME280_humidity;BME280_pressure;Samples;Min_cycle;Max_cycle;Signal;HPM_P1;HPM_P2
2023/01/04 00:01:12;;;;;;;5.78;1.50;;;;;;;12.54;58.95;101916.22;4953486;28;113960;-68
2023/01/04 00:03:39;;;;;;;6.28;1.60;;;;;;;12.53;58.97;101897.72;4956263;28;113938;-68
2023/01/04 00:06:08;;;;;;;10.55;1.65;;;;;;;12.53;59.04;101901.22;4949942;28;124311;-68
2023/01/04 00:08:36;;;;;;;9.43;1.98;;;;;;;12.52;59.24;101898.63;4950834;28;124104;-68
2023/01/04 00:11:06;;;;;;;5.30;1.58;;;;;;;12.49;59.37;101883.66;4952940;28;115002;-68
2023/01/04 00:13:33;;;;;;;5.18;1.60;;;;;;;12.48;59.49;101889.88;4956788;28;114705;-67
2023/01/04 00:16:07;;;;;;;5.00;1.77;;;;;;;12.46;59.41;101883.75;4953930;28;124138;-68
2023/01/04 00:18:35;;;;;;;6.07;1.65;;;;;;;12.45;59.55;101871.38;4949988;28;123971;-68
2023/01/04 00:21:06;;;;;;;5.40;1.70;;;;;;;12.43;59.77;101878.53;4951561;28;113075;-68
2023/01/04 00:23:33;;;;;;;7.20;1.67;;;;;;;12.42;59.80;101866.19;4956279;28;114564;-68
2023/01/04 00:26:00;;;;;;;5.72;1.75;;;;;;;12.41;59.92;101856.47;4945922;28;123663;-68
2023/01/04 00:28:27;;;;;;;6.00;1.65;;;;;;;12.39;60.15;101859.19;4954192;28;124397;-68
2023/01/04 00:30:54;;;;;;;5.40;1.65;;;;;;;12.38;60.01;101849.50;4955820;28;114580;-68
2023/01/04 00:33:21;;;;;;;6.30;1.90;;;;;;;12.38;60.18;101851.31;4957126;28;114869;-68
2023/01/04 00:35:48;;;;;;;9.05;1.85;;;;;;;12.36;60.28;101855.81;4956153;28;124723;-68
2023/01/04 00:38:16;;;;;;;6.22;1.90;;;;;;;12.35;60.40;101843.44;4957598;28;124327;-67
2023/01/04 00:40:43;;;;;;;5.68;1.50;;;;;;;12.35;60.46;101833.66;4956537;28;115202;-68
2023/01/04 00:43:10;;;;;;;6.53;1.50;;;;;;;12.34;60.75;101831.06;4953921;28;114703;-68
2023/01/04 00:45:37;;;;;;;6.68;1.73;;;;;;;12.32;60.67;101827.59;4953586;28;123908;-68
2023/01/04 00:48:04;;;;;;;6.45;1.67;;;;;;;12.32;60.91;101824.94;4959914;28;124980;-67
2023/01/04 00:50:31;;;;;;;3.88;1.50;;;;;;;12.30;61.07;101824.13;4952970;28;114055;-68
2023/01/04 00:52:58;;;;;;;6.55;1.90;;;;;;;12.29;61.01;101809.13;4946856;28;114643;-68
2023/01/04 00:55:25;;;;;;;5.95;1.95;;;;;;;12.29;61.17;101806.47;4954186;28;123826;-68
2023/01/04 00:57:52;;;;;;;5.43;1.63;;;;;;;12.29;61.38;101795.84;4959061;28;123623;-67
2023/01/04 01:00:19;;;;;;;5.70;1.60;;;;;;;12.28;61.32;101794.97;4956467;28;114331;-68
2023/01/04 01:02:46;;;;;;;4.10;1.67;;;;;;;12.29;61.46;101779.91;4955524;28;113905;-67
2023/01/04 01:05:13;;;;;;;6.30;2.30;;;;;;;12.28;61.47;101789.66;4955396;28;123888;-68
2023/01/04 01:07:40;;;;;;;5.88;1.45;;;;;;;12.27;61.51;101772.84;4957520;28;123302;-68
2023/01/04 01:10:07;;;;;;;5.05;1.50;;;;;;;12.28;61.50;101776.38;4952522;28;114203;-68
2023/01/04 01:12:35;;;;;;;4.97;1.55;;;;;;;12.28;61.65;101779.03;4956718;28;114450;-67
2023/01/04 01:15:02;;;;;;;3.83;1.65;;;;;;;12.30;61.74;101781.63;4951250;28;124273;-68
2023/01/04 01:17:29;;;;;;;5.07;1.58;;;;;;;12.29;61.82;101774.59;4960071;28;124373;-68
2023/01/04 01:19:56;;;;;;;4.53;1.50;;;;;;;12.31;61.88;101778.06;4959699;28;114173;-68
2023/01/04 01:22:23;;;;;;;4.13;1.60;;;;;;;12.32;61.96;101769.16;4955375;28;113941;-68
2023/01/04 01:24:50;;;;;;;5.88;1.40;;;;;;;12.32;61.93;101777.13;4967417;28;124698;-68
2023/01/04 01:27:17;;;;;;;5.53;1.50;;;;;;;12.32;61.84;101769.16;4952366;28;124530;-68
2023/01/04 01:29:44;;;;;;;5.60;1.67;;;;;;;12.34;62.07;101767.31;4958864;28;114663;-68
2023/01/04 01:32:11;;;;;;;5.53;1.40;;;;;;;12.34;62.21;101756.69;4961425;28;115410;-68
2023/01/04 01:34:38;;;;;;;5.47;1.60;;;;;;;12.35;62.34;101758.44;4955459;28;123976;-68
2023/01/04 01:37:05;;;;;;;4.85;1.60;;;;;;;12.38;62.36;101753.00;4954501;28;124452;-68
2023/01/04 01:39:32;;;;;;;3.28;1.42;;;;;;;12.39;62.45;101755.56;4958384;28;114112;-67
2023/01/04 01:41:59;;;;;;;3.50;1.48;;;;;;;12.40;62.54;101751.16;4952618;28;114085;-68
2023/01/04 01:44:42;;;;;;;2.58;1.27;;;;;;;12.40;62.69;101751.16;4951279;28;123309;-67
2023/01/04 01:47:16;;;;;;;3.75;1.20;;;;;;;12.40;62.87;101748.50;4965592;28;124182;-68
2023/01/04 01:49:46;;;;;;;4.65;1.02;;;;;;;12.42;62.60;101744.00;4963562;28;113185;-68
2023/01/04 01:52:17;;;;;;;4.25;1.30;;;;;;;12.43;62.75;101740.38;4955118;28;115006;-67
2023/01/04 01:54:48;;;;;;;3.42;1.20;;;;;;;12.45;62.75;101733.22;4951373;28;124261;-68
2023/01/04 01:57:20;;;;;;;3.35;1.30;;;;;;;12.46;62.85;101729.66;4950132;28;123536;-67
2023/01/04 01:59:50;;;;;;;3.15;1.30;;;;;;;12.48;62.91;101734.91;4947235;28;114293;-68
2023/01/04 02:02:18;;;;;;;4.40;1.58;;;;;;;12.49;62.91;101734.88;4964333;28;115599;-68
2023/01/04 02:04:49;;;;;;;3.28;1.20;;;;;;;12.51;62.97;101733.00;4955518;28;124690;-68
2023/01/04 02:07:20;;;;;;;2.75;1.27;;;;;;;12.52;63.04;101729.41;4947245;28;124264;-68
2023/01/04 02:09:49;;;;;;;3.40;1.13;;;;;;;12.52;63.13;101729.41;4955390;28;114260;-68
2023/01/04 02:12:16;;;;;;;4.05;1.52;;;;;;;12.55;63.15;101734.63;4955492;28;114940;-67
2023/01/04 02:14:48;;;;;;;2.75;1.10;;;;;;;12.57;63.25;101716.81;4953037;28;124076;-67
2023/01/04 02:17:21;;;;;;;3.00;1.00;;;;;;;12.57;63.20;101722.13;4961952;28;124497;-68
2023/01/04 02:20:09;;;;;;;2.25;1.10;;;;;;;12.58;63.25;101713.25;4955390;28;115060;-68
2023/01/04 02:22:53;;;;;;;2.05;1.20;;;;;;;12.57;63.33;101724.78;4953397;28;115255;-68
2023/01/04 02:25:51;;;;;;;2.13;1.10;;;;;;;12.58;63.45;101729.19;4947108;28;123822;-67
2023/01/04 02:28:51;;;;;;;2.08;1.15;;;;;;;12.57;63.27;101719.47;4946453;28;124416;-68
2023/01/04 02:31:38;;;;;;;2.53;1.30;;;;;;;12.58;63.50;101718.56;4949971;28;114620;-68
2023/01/04 02:34:08;;;;;;;4.90;1.10;;;;;;;12.59;63.52;101704.34;4959587;28;114029;-68
2023/01/04 02:36:44;;;;;;;2.42;1.23;;;;;;;12.61;63.71;101702.47;4951347;28;124275;-68
2023/01/04 02:39:48;;;;;;;3.97;1.23;;;;;;;12.61;63.75;101697.16;4951038;28;123883;-68
2023/01/04 02:42:20;;;;;;;3.95;1.30;;;;;;;12.63;63.63;101690.00;4954528;28;113952;-68
2023/01/04 02:44:52;;;;;;;2.70;1.20;;;;;;;12.64;63.83;101691.75;4948413;28;113797;-68
2023/01/04 02:50:30;;;;;;;4.40;1.27;;;;;;;12.66;63.93;101679.25;4951793;28;124934;-68
2023/01/04 02:53:11;;;;;;;2.05;1.10;;;;;;;12.69;63.88;101666.75;4953702;28;114726;-68
2023/01/04 02:55:41;;;;;;;1.90;1.02;;;;;;;12.70;63.87;101664.03;4953677;28;115401;-68
2023/01/04 02:58:37;;;;;;;2.97;1.20;;;;;;;12.71;63.96;101664.91;4957020;28;124446;-68
2023/01/04 03:07:17;;;;;;;1.85;1.08;;;;;;;12.75;63.97;101639.91;4945981;28;113913;-68
2023/01/04 03:09:50;;;;;;;2.80;1.00;;;;;;;12.77;64.14;101644.25;4945584;28;124423;-68
2023/01/04 03:12:30;;;;;;;2.25;1.00;;;;;;;12.80;64.28;101632.63;4951266;28;124206;-68
2023/01/04 03:15:10;;;;;;;1.58;1.08;;;;;;;12.82;64.35;101630.78;4949556;28;115230;-68
2023/01/04 03:17:44;;;;;;;2.42;1.10;;;;;;;12.85;64.20;101635.97;4947763;28;115538;-68
2023/01/04 03:20:15;;;;;;;3.55;1.23;;;;;;;12.87;64.36;101627.94;4955743;28;122818;-67
2023/01/04 03:37:29;;;;;;;4.18;0.93;;;;;;;12.99;64.32;101601.66;4952820;28;113202;-68
2023/01/04 03:48:32;;;;;;;3.90;1.00;;;;;;;13.05;64.45;101601.41;4952297;28;114133;-68
2023/01/04 03:51:13;;;;;;;2.00;0.88;;;;;;;13.09;64.58;101595.94;4957588;28;113091;-68
2023/01/04 03:53:53;;;;;;;1.73;1.02;;;;;;;13.11;64.62;101588.75;4945254;28;125133;-68
2023/01/04 03:56:22;;;;;;;3.17;1.05;;;;;;;13.13;64.59;101582.47;4953883;28;125360;-68
2023/01/04 03:58:51;;;;;;;1.27;0.90;;;;;;;13.16;64.63;101578.78;4951197;28;114166;-68
2023/01/04 04:01:20;;;;;;;2.92;1.10;;;;;;;13.17;64.72;101577.88;4950022;28;114214;-68
2023/01/04 04:09:19;;;;;;;1.95;1.13;;;;;;;13.22;64.29;101570.53;4945503;28;115667;-68
2023/01/04 04:11:46;;;;;;;1.17;1.00;;;;;;;13.23;64.40;101572.28;4952369;28;115019;-68
2023/01/04 04:14:13;;;;;;;1.83;1.23;;;;;;;13.25;64.42;101570.41;4951410;28;124142;-68
2023/01/04 04:16:40;;;;;;;1.25;1.10;;;;;;;13.28;64.62;101569.41;4953217;28;123162;-68
2023/01/04 04:19:07;;;;;;;2.60;1.33;;;;;;;13.28;64.65;101564.97;4954411;28;114486;-68
2023/01/04 04:21:35;;;;;;;1.75;1.23;;;;;;;13.31;64.62;101580.81;4956326;28;115390;-68
2023/01/04 04:24:03;;;;;;;2.17;1.20;;;;;;;13.34;64.55;101558.53;4951607;28;123980;-68
2023/01/04 04:26:31;;;;;;;3.72;1.20;;;;;;;13.37;64.57;101564.59;4953257;28;121577;-68
2023/01/04 04:28:58;;;;;;;1.98;1.30;;;;;;;13.38;64.62;101553.00;4952084;28;114269;-68
2023/01/04 04:31:25;;;;;;;1.80;1.20;;;;;;;13.40;64.64;101561.78;4958895;28;113983;-68
2023/01/04 04:33:52;;;;;;;2.35;1.30;;;;;;;13.43;64.68;101561.63;4955757;28;124368;-68
2023/01/04 04:36:19;;;;;;;2.17;1.40;;;;;;;13.46;64.57;101557.09;4955103;28;123574;-68
2023/01/04 04:38:46;;;;;;;2.00;1.17;;;;;;;13.46;64.70;101547.31;4959587;28;114653;-68
2023/01/04 04:43:59;;;;;;;2.33;1.20;;;;;;;13.49;64.62;101541.00;4954477;28;124161;-68
2023/01/04 04:46:26;;;;;;;2.50;1.10;;;;;;;13.51;64.79;101539.16;4956643;28;123679;-68
2023/01/04 04:48:53;;;;;;;1.60;1.20;;;;;;;13.51;64.64;101544.47;4959865;28;114774;-68
2023/01/04 04:51:20;;;;;;;2.30;1.38;;;;;;;13.52;64.86;101535.53;4955864;28;115664;-68
2023/01/04 04:53:48;;;;;;;2.75;1.20;;;;;;;13.53;64.71;101537.28;4959300;28;123866;-68
2023/01/04 04:56:15;;;;;;;1.65;1.30;;;;;;;13.54;64.74;101538.97;4953067;28;124563;-68
2023/01/04 04:58:42;;;;;;;4.18;1.40;;;;;;;13.55;64.81;101530.94;4959711;28;114180;-68
2023/01/04 05:01:10;;;;;;;2.03;1.30;;;;;;;13.58;64.87;101535.25;4963766;28;114220;-68
2023/01/04 05:03:37;;;;;;;2.70;1.60;;;;;;;13.58;64.84;101541.44;4964789;28;123609;-68
2023/01/04 05:06:04;;;;;;;3.38;1.52;;;;;;;13.60;64.75;101528.06;4953792;28;123058;-68
2023/01/04 05:08:31;;;;;;;2.25;1.52;;;;;;;13.62;64.74;101523.53;4960294;28;114117;-68
2023/01/04 05:10:58;;;;;;;2.60;1.58;;;;;;;13.63;64.72;101527.91;4957323;28;113977;-68
2023/01/04 05:13:25;;;;;;;2.70;1.63;;;;;;;13.64;64.78;101521.66;4957722;28;123793;-68
2023/01/04 05:15:54;;;;;;;4.07;1.60;;;;;;;13.66;64.85;101510.94;4963464;28;123030;-68
2023/01/04 05:18:21;;;;;;;2.50;1.70;;;;;;;13.67;64.79;101518.84;4957675;28;113549;-68
2023/01/04 05:20:49;;;;;;;1.75;1.48;;;;;;;13.69;64.89;101506.31;4958758;28;114502;-68
2023/01/04 05:23:18;;;;;;;2.13;1.70;;;;;;;13.71;64.92;101523.09;4954463;28;124613;-68
2023/01/04 05:25:54;;;;;;;2.35;1.80;;;;;;;13.71;64.93;101504.47;4952427;28;123936;-68
2023/01/04 05:28:22;;;;;;;2.97;1.75;;;;;;;13.73;64.76;101513.25;4950797;28;114235;-68
2023/01/04 05:30:49;;;;;;;3.97;1.90;;;;;;;13.76;65.01;101507.75;4959981;28;114241;-68
2023/01/04 05:33:31;;;;;;;3.10;1.70;;;;;;;13.77;64.95;101504.16;4954848;28;124633;-68
2023/01/04 05:36:01;;;;;;;3.95;1.80;;;;;;;13.80;65.06;101503.16;4955670;28;123844;-68
2023/01/04 05:38:28;;;;;;;3.75;2.28;;;;;;;13.83;64.90;101493.22;4961700;28;114252;-68
2023/01/04 05:40:56;;;;;;;2.28;1.98;;;;;;;13.86;65.03;101491.34;4960664;28;114256;-68
2023/01/04 05:43:23;;;;;;;3.30;2.03;;;;;;;13.89;64.93;101480.56;4953724;28;124460;-67
2023/01/04 05:45:53;;;;;;;2.00;1.80;;;;;;;13.90;64.93;101471.59;4959359;28;124905;-68
2023/01/04 05:48:22;;;;;;;2.55;1.92;;;;;;;13.91;65.01;101474.19;4956002;28;115365;-68
2023/01/04 05:50:49;;;;;;;3.42;1.83;;;;;;;13.93;65.00;101476.78;4955427;28;113799;-67
2023/01/04 05:53:17;;;;;;;2.58;1.85;;;;;;;13.96;65.11;101476.66;4958291;28;123161;-68
2023/01/04 05:55:47;;;;;;;5.30;2.35;;;;;;;13.97;64.89;101467.72;4954319;28;121870;-68
2023/01/04 05:58:14;;;;;;;2.70;2.00;;;;;;;13.98;64.96;101464.13;4956707;28;114754;-68
2023/01/04 06:00:41;;;;;;;5.32;2.00;;;;;;;14.00;65.03;101462.25;4954000;28;113141;-68
2023/01/04 06:03:09;;;;;;;2.80;2.13;;;;;;;14.02;64.83;101471.03;4962154;28;123878;-68
2023/01/04 06:05:36;;;;;;;2.80;2.00;;;;;;;14.03;64.98;101462.06;4957876;28;123475;-68
2023/01/04 06:08:03;;;;;;;2.20;1.88;;;;;;;14.03;65.01;101462.06;4954749;28;114238;-68
2023/01/04 06:10:30;;;;;;;4.13;2.00;;;;;;;14.04;65.06;101452.31;4953618;28;114264;-68
2023/01/04 06:12:57;;;;;;;2.20;1.73;;;;;;;14.04;65.26;101474.47;4958242;28;124748;-68
2023/01/04 06:15:25;;;;;;;3.70;1.98;;;;;;;14.06;65.30;101451.28;4962664;28;124190;-68
2023/01/04 06:17:52;;;;;;;4.15;2.03;;;;;;;14.07;65.25;101442.38;4958794;28;113989;-68
2023/01/04 06:20:19;;;;;;;3.65;2.20;;;;;;;14.08;65.18;101428.09;4959958;28;113881;-68
2023/01/04 06:22:46;;;;;;;9.15;2.13;;;;;;;14.09;65.16;101440.47;4951962;28;123663;-68
2023/01/04 06:25:13;;;;;;;3.97;2.03;;;;;;;14.11;65.23;101454.59;4953275;28;125519;-68
2023/01/04 06:27:40;;;;;;;3.15;1.80;;;;;;;14.13;65.27;101446.53;4953157;28;114685;-68
2023/01/04 06:30:08;;;;;;;2.95;2.03;;;;;;;14.15;65.36;101460.63;4949029;28;114089;-68
2023/01/04 06:32:35;;;;;;;3.28;2.05;;;;;;;14.16;65.30;101447.19;4956701;28;124778;-68
2023/01/04 06:35:02;;;;;;;5.78;2.45;;;;;;;14.18;65.34;101456.00;4955077;28;123277;-68
2023/01/04 06:37:29;;;;;;;2.05;1.65;;;;;;;14.19;65.38;101452.38;4950825;28;114678;-68
2023/01/04 06:39:56;;;;;;;2.47;1.73;;;;;;;14.21;65.42;101445.19;4956334;28;113915;-69
2023/01/04 06:45:10;;;;;;;2.92;2.13;;;;;;;14.24;65.33;101440.63;4949437;28;124256;-68
2023/01/04 06:47:39;;;;;;;3.15;1.80;;;;;;;14.25;65.25;101445.03;4954999;28;114601;-68
2023/01/04 06:50:07;;;;;;;3.17;1.80;;;;;;;14.25;65.35;101456.53;4957304;28;114208;-68
2023/01/04 06:52:34;;;;;;;4.13;1.77;;;;;;;14.24;65.32;101443.28;4936587;28;122941;-69
2023/01/04 06:55:01;;;;;;;3.03;1.98;;;;;;;14.27;65.51;101453.81;4956127;28;123824;-68
2023/01/04 06:57:29;;;;;;;3.72;1.88;;;;;;;14.28;65.42;101450.19;4952516;28;114928;-69
2023/01/04 06:59:56;;;;;;;5.03;1.70;;;;;;;14.30;65.37;101459.00;4952862;28;114657;-68
2023/01/04 07:02:23;;;;;;;4.30;2.38;;;;;;;14.31;65.37;101460.69;4955467;28;123881;-69
2023/01/04 07:04:50;;;;;;;3.03;1.77;;;;;;;14.31;65.60;101450.91;4951379;28;123901;-68
2023/01/04 07:07:17;;;;;;;3.42;1.80;;;;;;;14.32;65.48;101462.44;4958195;28;114066;-68
2023/01/04 07:09:44;;;;;;;4.70;2.00;;;;;;;14.34;65.54;101449.91;4956596;28;114113;-69
2023/01/04 07:12:12;;;;;;;3.90;1.80;;;;;;;14.35;65.49;101456.94;4953775;28;122989;-68
2023/01/04 07:14:39;;;;;;;2.63;1.80;;;;;;;14.36;65.40;101434.69;4954680;28;124724;-68
2023/01/04 07:17:06;;;;;;;2.50;1.60;;;;;;;14.37;65.53;101431.06;4954938;28;114825;-68
2023/01/04 07:19:33;;;;;;;3.30;1.60;;;;;;;14.36;65.38;101443.53;4962321;28;113880;-68
2023/01/04 07:22:01;;;;;;;1.65;1.45;;;;;;;14.39;65.38;101437.16;4968618;28;124457;-68
2023/01/04 07:24:28;;;;;;;2.80;1.40;;;;;;;14.41;65.57;101435.31;4966955;28;124462;-68
2023/01/04 07:27:00;;;;;;;2.10;1.40;;;;;;;14.43;65.47;101422.78;4954737;28;115201;-68
2023/01/04 07:29:27;;;;;;;2.40;1.52;;;;;;;14.44;65.61;101413.81;4958815;28;114825;-69
2023/01/04 07:31:55;;;;;;;1.80;1.20;;;;;;;14.46;65.46;101417.25;4953308;28;123742;-69
2023/01/04 07:34:24;;;;;;;1.42;1.15;;;;;;;14.48;65.43;101420.72;4952558;28;124675;-69
2023/01/04 07:36:52;;;;;;;2.45;1.10;;;;;;;14.50;65.48;101413.50;4953581;28;114295;-69
2023/01/04 07:39:20;;;;;;;3.42;1.02;;;;;;;14.52;65.44;101416.97;4946340;28;113322;-69
2023/01/04 07:41:48;;;;;;;4.00;1.10;;;;;;;14.55;65.44;101411.44;4953101;28;123863;-69
2023/01/04 07:44:18;;;;;;;3.83;1.10;;;;;;;14.57;65.50;101404.28;4946480;28;123015;-71
2023/01/04 07:46:45;;;;;;;1.73;0.98;;;;;;;14.62;65.34;101411.16;4957844;28;114536;-69
2023/01/04 07:49:15;;;;;;;3.42;1.15;;;;;;;14.63;65.36;101396.91;4954915;28;113948;-69
2023/01/04 07:51:46;;;;;;;1.70;1.00;;;;;;;14.66;65.40;101386.09;4956248;28;125333;-69
2023/01/04 07:54:15;;;;;;;4.30;1.17;;;;;;;14.69;65.12;101391.22;4943296;28;123740;-69
2023/01/04 07:56:43;;;;;;;3.60;1.00;;;;;;;14.72;65.19;101377.75;4951659;28;114243;-69
2023/01/04 07:59:12;;;;;;;4.25;0.95;;;;;;;14.75;65.18;101385.59;4952334;28;113912;-69
2023/01/04 08:01:40;;;;;;;3.92;1.00;;;;;;;14.77;65.08;101378.38;4951454;28;125163;-69
2023/01/04 08:04:08;;;;;;;3.28;1.30;;;;;;;14.79;64.99;101365.81;4950839;28;122977;-68
2023/01/04 08:06:36;;;;;;;3.05;1.05;;;;;;;14.83;64.86;101366.50;4967210;28;114070;-69
2023/01/04 08:09:04;;;;;;;2.33;1.00;;;;;;;14.83;64.90;101372.69;4956565;28;116757;-69
2023/01/04 08:11:32;;;;;;;1.90;1.08;;;;;;;14.85;64.91;101368.13;4948645;28;123123;-69
2023/01/04 08:13:59;;;;;;;2.28;1.20;;;;;;;14.87;64.75;101379.56;4947422;28;123670;-69
2023/01/04 08:16:31;;;;;;;2.88;1.00;;;;;;;14.88;64.70;101365.31;4950426;28;115476;-69
2023/01/04 08:19:02;;;;;;;4.15;0.90;;;;;;;14.89;64.72;101367.00;4952013;28;115739;-69
2023/01/04 08:21:30;;;;;;;2.80;0.90;;;;;;;14.91;64.71;101369.59;4952257;28;124042;-69
2023/01/04 08:23:57;;;;;;;2.17;0.93;;;;;;;14.93;64.67;101379.22;4952443;28;123786;-69
2023/01/04 08:26:25;;;;;;;3.17;0.82;;;;;;;14.95;64.79;101382.66;4959536;28;114235;-69
2023/01/04 08:28:53;;;;;;;3.13;1.00;;;;;;;14.97;64.66;101374.59;4968317;28;113072;-69
2023/01/04 08:31:24;;;;;;;3.35;0.80;;;;;;;15.01;64.66;101385.97;4951161;28;124183;-68
2023/01/04 08:33:52;;;;;;;2.47;0.80;;;;;;;15.03;64.61;101374.28;4952662;28;124964;-69
2023/01/04 08:36:21;;;;;;;3.25;0.80;;;;;;;15.05;64.50;101387.50;4950752;28;114073;-69
2023/01/04 08:38:56;;;;;;;3.10;0.80;;;;;;;15.08;64.59;101387.34;4951210;28;114642;-69
2023/01/04 08:41:28;;;;;;;2.55;1.00;;;;;;;15.12;64.46;101388.91;4935243;28;123647;-69
2023/01/04 08:44:16;;;;;;;3.30;1.17;;;;;;;15.13;64.44;101390.63;4951981;28;124544;-69
2023/01/04 08:46:44;;;;;;;3.15;0.90;;;;;;;15.16;64.42;101375.31;4962398;28;114207;-69
2023/01/04 08:49:11;;;;;;;2.58;0.95;;;;;;;15.21;64.49;101383.03;4955681;28;113727;-69
2023/01/04 08:51:39;;;;;;;2.53;0.80;;;;;;;15.24;64.37;101376.66;4951773;28;124132;-69
2023/01/04 08:54:06;;;;;;;1.77;0.73;;;;;;;15.27;64.37;101388.03;4950497;28;124164;-68
2023/01/04 08:56:33;;;;;;;2.40;0.80;;;;;;;15.31;64.41;101388.72;4950758;28;114110;-70
2023/01/04 08:59:01;;;;;;;1.80;0.80;;;;;;;15.34;64.25;101386.75;4958269;28;113928;-69
2023/01/04 09:01:28;;;;;;;1.92;0.77;;;;;;;15.37;64.22;101402.59;4941993;28;124689;-69
2023/01/04 09:03:55;;;;;;;2.53;0.70;;;;;;;15.41;64.21;101394.41;4948763;28;124399;-69
2023/01/04 09:06:23;;;;;;;1.55;0.70;;;;;;;15.43;64.24;101382.72;4950415;28;115285;-69
2023/01/04 09:08:50;;;;;;;4.90;0.90;;;;;;;15.45;64.05;101387.97;4948925;28;115679;-69
2023/01/04 09:11:19;;;;;;;2.70;0.82;;;;;;;15.46;64.13;101389.66;4949728;28;123134;-69
2023/01/04 09:13:48;;;;;;;3.25;0.90;;;;;;;15.47;63.99;101384.25;4948621;28;122718;-69
2023/01/04 09:16:18;;;;;;;4.28;0.85;;;;;;;15.49;64.00;101386.84;4960573;28;114253;-69
2023/01/04 09:18:45;;;;;;;2.22;0.95;;;;;;;15.50;63.85;101384.09;4959745;28;114211;-69
2023/01/04 09:21:15;;;;;;;2.42;0.73;;;;;;;15.53;63.91;101375.03;4954048;28;124381;-69
2023/01/04 09:23:44;;;;;;;1.75;0.65;;;;;;;15.56;63.78;101369.53;4966109;28;124710;-69
2023/01/04 09:26:14;;;;;;;2.22;0.82;;;;;;;15.57;63.81;101385.44;4959756;28;115433;-69
2023/01/04 09:28:42;;;;;;;3.22;0.90;;;;;;;15.60;63.85;101373.72;4956280;28;114081;-69
2023/01/04 09:31:14;;;;;;;2.25;1.00;;;;;;;15.63;63.84;101378.88;4961594;28;124493;-69
2023/01/04 09:33:43;;;;;;;2.50;0.75;;;;;;;15.67;63.67;101364.44;4939408;28;126111;-69
2023/01/04 09:36:30;;;;;;;2.40;0.80;;;;;;;15.69;63.73;101378.53;4976910;28;114765;-69
2023/01/04 09:38:57;;;;;;;1.65;0.70;;;;;;;15.71;63.76;101373.97;4966759;28;113933;-69
2023/01/04 09:41:27;;;;;;;3.75;0.93;;;;;;;15.73;63.65;101385.47;4964763;28;124048;-69
2023/01/04 09:43:57;;;;;;;2.25;0.80;;;;;;;15.74;63.59;101371.13;4963806;28;124424;-70
2023/01/04 09:46:31;;;;;;;1.67;0.85;;;;;;;15.76;63.51;101363.94;4965953;28;112442;-69
2023/01/04 09:49:26;;;;;;;3.20;0.77;;;;;;;15.76;63.37;101379.94;4954990;28;114667;-69
2023/01/04 09:52:02;;;;;;;2.47;0.80;;;;;;;15.75;63.57;101375.53;4956993;28;124106;-69
2023/01/04 09:54:45;;;;;;;5.65;0.80;;;;;;;15.75;63.46;101378.22;4933223;28;124416;-69
2023/01/04 09:57:22;;;;;;;1.40;0.60;;;;;;;15.77;63.62;101381.66;4952183;28;116166;-69
2023/01/04 09:59:56;;;;;;;1.60;0.75;;;;;;;15.77;63.57;101380.81;4933568;28;115671;-68
2023/01/04 10:02:38;;;;;;;1.27;0.60;;;;;;;15.77;63.52;101365.63;4943483;28;124026;-69
2023/01/04 10:05:07;;;;;;;4.20;1.05;;;;;;;15.77;63.57;101360.28;4941988;28;124373;-68
2023/01/04 10:07:35;;;;;;;2.10;0.77;;;;;;;15.77;63.54;101370.97;4965982;28;114070;-69
2023/01/04 10:10:03;;;;;;;2.67;0.70;;;;;;;15.78;63.83;101366.47;4947518;28;113054;-69
2023/01/04 10:12:51;;;;;;;5.30;0.93;;;;;;;15.78;63.79;101371.81;4919810;28;123430;-68
2023/01/04 10:15:36;;;;;;;1.95;0.75;;;;;;;15.76;63.66;101358.59;4948146;28;123781;-69
2023/01/04 10:18:16;;;;;;;2.78;1.08;;;;;;;15.76;63.95;101363.03;4948899;28;114945;-68
2023/01/04 10:21:19;;;;;;;2.63;0.80;;;;;;;15.76;63.56;101358.59;4949454;28;112579;-67
2023/01/04 10:24:25;;;;;;;;;;;;;;;15.75;63.85;101372.88;4949173;28;124418;-68
2023/01/04 10:27:00;;;;;;;2.17;0.80;;;;;;;15.73;63.68;101364.09;4946248;28;124445;-68
2023/01/04 10:29:38;;;;;;;2.08;0.90;;;;;;;15.72;63.70;101367.66;4944482;28;114913;-68
2023/01/04 10:32:16;;;;;;;3.10;1.00;;;;;;;15.73;64.01;101369.44;4948694;28;113192;-68
2023/01/04 10:34:46;;;;;;;2.88;0.90;;;;;;;15.71;63.89;101365.97;4952786;28;123791;-68
2023/01/04 10:37:35;;;;;;;2.58;1.33;;;;;;;15.69;64.02;101373.22;4951967;28;123926;-68
2023/01/04 10:40:12;;;;;;;1.83;0.90;;;;;;;15.67;64.04;101364.44;4953684;28;114848;-68
2023/01/04 10:42:45;;;;;;;1.45;0.95;;;;;;;15.67;64.06;101368.88;4967048;28;114833;-68
2023/01/04 10:45:18;;;;;;;2.90;1.10;;;;;;;15.65;64.21;101366.31;4965197;28;124725;-68
2023/01/04 10:48:15;;;;;;;3.03;0.88;;;;;;;15.64;64.23;101359.25;4962865;28;124426;-66
2023/01/04 10:50:57;;;;;;;2.17;1.27;;;;;;;15.63;64.46;101345.97;4953284;28;115376;-66
2023/01/04 10:54:02;;;;;;;2.92;0.80;;;;;;;15.61;64.27;101354.06;4937902;28;114729;-66
2023/01/04 10:56:44;;;;;;;2.97;0.80;;;;;;;15.59;64.27;101350.63;4943535;28;125474;-67
2023/01/04 10:59:40;;;;;;;1.95;0.77;;;;;;;15.59;64.24;101361.31;4958816;28;123665;-66
2023/01/04 11:02:36;;;;;;;4.43;0.98;;;;;;;15.58;64.28;101354.28;4949827;28;114279;-67
2023/01/04 11:05:28;;;;;;;1.30;0.93;;;;;;;15.57;64.39;101352.53;4948919;28;114298;-69
2023/01/04 11:08:10;;;;;;;2.05;0.70;;;;;;;15.58;64.44;101359.63;4950522;28;124273;-68
2023/01/04 11:10:46;;;;;;;1.85;0.80;;;;;;;15.57;64.46;101352.53;4948203;28;124130;-69
2023/01/04 11:13:13;;;;;;;4.57;0.90;;;;;;;15.57;64.54;101352.53;4947319;28;114217;-68
2023/01/04 11:15:42;;;;;;;2.88;0.90;;;;;;;15.55;64.49;101360.63;4935792;28;115014;-68
2023/01/04 11:18:12;;;;;;;2.40;0.90;;;;;;;15.55;64.60;101347.28;4950135;28;97831;-68
2023/01/04 11:20:40;;;;;;;1.00;0.77;;;;;;;15.56;64.63;101341.00;4950418;28;123996;-68
2023/01/04 11:23:18;;;;;;;1.90;0.68;;;;;;;15.55;64.74;101354.44;4958748;28;114688;-68
2023/01/04 11:25:57;;;;;;;1.42;0.90;;;;;;;15.56;64.68;101356.19;4958835;28;114409;-68
2023/01/04 11:28:30;;;;;;;1.77;0.80;;;;;;;15.56;64.81;101350.84;4962904;28;124050;-68
2023/01/04 11:31:10;;;;;;;1.98;0.70;;;;;;;15.57;64.70;101341.88;4958616;28;124300;-68
2023/01/04 11:33:54;;;;;;;1.23;0.70;;;;;;;15.58;64.99;101346.25;4933415;28;114643;-68
2023/01/04 11:36:44;;;;;;;0.73;0.60;;;;;;;15.57;64.88;101341.88;4964342;28;114478;-68
2023/01/04 11:39:20;;;;;;;0.98;0.70;;;;;;;15.58;64.68;101336.44;4960404;28;124872;-68
2023/01/04 11:41:56;;;;;;;2.33;0.80;;;;;;;15.58;64.96;101343.59;4954838;28;124166;-68
2023/01/04 11:44:34;;;;;;;3.20;0.55;;;;;;;15.58;64.88;101338.25;4928286;28;114889;-68
2023/01/04 11:47:15;;;;;;;1.77;0.70;;;;;;;15.57;65.02;101325.84;4958969;28;114720;-68
2023/01/04 11:49:42;;;;;;;1.65;0.80;;;;;;;15.57;64.98;101341.88;4942247;28;124332;-68
2023/01/04 11:52:33;;;;;;;1.33;0.60;;;;;;;15.58;64.87;101332.91;4952153;28;124422;-68
2023/01/04 11:55:24;;;;;;;1.42;0.75;;;;;;;15.58;65.03;101367.63;4954212;28;113973;-68
2023/01/04 11:58:06;;;;;;;1.13;0.40;;;;;;;15.57;65.03;101353.41;4963751;28;112913;-68
2023/01/04 12:00:33;;;;;;;0.68;0.50;;;;;;;15.56;64.84;101340.16;4946887;28;124079;-68
2023/01/04 12:03:16;;;;;;;0.65;0.60;;;;;;;15.56;65.24;101350.84;4961730;28;123876;-68
2023/01/04 12:05:43;;;;;;;0.98;0.60;;;;;;;15.56;65.00;101343.69;4948646;28;114171;-68
2023/01/04 12:08:25;;;;;;;1.50;0.50;;;;;;;15.56;65.21;101345.50;4948254;28;113479;-68
2023/01/04 12:10:52;;;;;;;0.73;0.50;;;;;;;15.58;65.03;101343.59;4945781;28;124658;-68
2023/01/04 12:13:19;;;;;;;1.73;0.55;;;;;;;15.58;65.16;101343.59;4949145;28;124148;-69
2023/01/04 12:16:00;;;;;;;2.25;0.60;;;;;;;15.57;65.32;101339.19;4948467;28;114360;-68
2023/01/04 12:18:40;;;;;;;1.67;0.55;;;;;;;15.57;65.25;101352.53;4962642;28;113918;-68
2023/01/04 12:21:16;;;;;;;1.58;0.50;;;;;;;15.58;65.32;101327.56;4960734;28;123178;-68